Time;durP1;ratioP1;P1;durP2;ratioP2;P2;SDS_P1;SDS_P2;PMS_P1;PMS_P2;Temp;Humidity;BMP_temperature;BMP_pressure;BME280_temperature;BME280_humidity;BME280_pressure;Samples;Min_cycle;Max_cycle;Signal;HPM_P1;HPM_P2
2021/03/04 00:00:17;;;;;;;39.20;22.60;;;;;;;9.73;78.79;101032.78;632135;225;24932;-74
2021/03/04 00:02:45;;;;;;;44.37;24.93;;;;;;;9.90;77.58;101027.56;645574;221;27069;-75
2021/03/04 00:05:14;;;;;;;37.63;23.17;;;;;;;9.98;77.52;101027.77;643820;222;24877;-75
2021/03/04 00:07:42;;;;;;;37.10;21.77;;;;;;;9.94;77.08;101021.16;645686;221;24981;-74
2021/03/04 00:10:10;;;;;;;47.45;26.07;;;;;;;10.32;76.41;101016.03;634082;222;32829;-74
2021/03/04 00:12:38;;;;;;;46.07;25.10;;;;;;;10.22;76.79;101017.70;654344;217;24769;-75
2021/03/04 00:15:07;;;;;;;47.83;25.43;;;;;;;9.80;76.89;101013.63;646131;222;24889;-75
2021/03/04 00:17:35;;;;;;;39.13;23.00;;;;;;;9.50;78.06;101016.37;637782;222;24889;-76
2021/03/04 00:20:04;;;;;;;39.97;23.20;;;;;;;9.37;78.31;101018.25;658273;217;24807;-75
2021/03/04 00:22:32;;;;;;;42.20;22.37;;;;;;;9.38;78.43;101022.50;637249;222;24881;-75
2021/03/04 00:25:00;;;;;;;43.80;24.60;;;;;;;9.41;78.98;101015.77;644295;222;24912;-75
2021/03/04 00:27:28;;;;;;;46.00;22.37;;;;;;;9.49;78.52;101022.51;650405;217;24837;-74
2021/03/04 00:29:56;;;;;;;37.83;21.30;;;;;;;9.40;78.01;101021.08;639337;222;24901;-74
2021/03/04 00:32:23;;;;;;;38.07;21.40;;;;;;;9.46;78.38;101018.86;645131;222;24902;-74
2021/03/04 00:34:51;;;;;;;31.73;18.37;;;;;;;9.45;78.45;101013.78;643207;222;24900;-75
2021/03/04 00:37:19;;;;;;;32.33;20.00;;;;;;;9.49;77.62;101009.52;651199;217;24871;-75
2021/03/04 00:39:47;;;;;;;33.90;20.50;;;;;;;9.61;77.79;101001.27;638497;221;24910;-75
2021/03/04 00:42:15;;;;;;;40.43;22.40;;;;;;;9.80;77.12;100994.14;641794;221;24949;-75
2021/03/04 00:44:43;;;;;;;36.60;21.17;;;;;;;9.92;76.26;100987.98;649414;217;24825;-74
2021/03/04 00:47:11;;;;;;;36.90;22.20;;;;;;;10.36;74.49;100982.31;637364;220;32796;-75
2021/03/04 00:49:39;;;;;;;37.93;21.10;;;;;;;10.14;75.65;100987.59;641163;221;23744;-75
2021/03/04 00:52:07;;;;;;;32.23;20.90;;;;;;;10.10;74.94;100981.31;645569;220;24898;-75
2021/03/04 00:54:35;;;;;;;43.90;23.37;;;;;;;10.15;74.74;100981.44;630075;226;24973;-75
2021/03/04 00:57:03;;;;;;;37.17;21.13;;;;;;;10.07;74.75;100978.14;646251;221;25103;-75
2021/03/04 00:59:31;;;;;;;37.10;21.53;;;;;;;10.01;75.00;100983.84;639254;221;24928;-75
2021/03/04 01:01:59;;;;;;;35.87;21.20;;;;;;;10.06;75.61;100985.11;639274;221;24898;-76
2021/03/04 01:04:27;;;;;;;35.57;21.57;;;;;;;10.11;74.55;100975.64;637313;221;26008;-75
2021/03/04 01:06:55;;;;;;;36.43;20.57;;;;;;;10.04;74.83;100970.13;649576;221;23843;-76
2021/03/04 01:09:23;;;;;;;33.73;19.50;;;;;;;10.00;74.94;100974.39;639351;222;25093;-75
2021/03/04 01:11:51;;;;;;;29.87;20.13;;;;;;;10.10;74.04;100971.39;630556;221;32830;-75
2021/03/04 01:14:19;;;;;;;29.17;18.50;;;;;;;9.65;75.84;100967.61;642743;221;25173;-73
2021/03/04 01:16:47;;;;;;;35.33;18.23;;;;;;;9.42;76.31;100974.58;649281;218;24846;-75
2021/03/04 01:19:15;;;;;;;27.70;17.57;;;;;;;9.30;76.77;100970.36;641134;222;24847;-74
2021/03/04 01:21:42;;;;;;;31.93;18.00;;;;;;;9.22;77.15;100966.22;644978;222;25109;-75
2021/03/04 01:24:11;;;;;;;31.13;17.80;;;;;;;9.14;78.30;100966.79;652781;218;24920;-75
2021/03/04 01:26:39;;;;;;;29.10;18.83;;;;;;;9.09;77.85;100966.80;638210;222;24874;-75
2021/03/04 01:29:07;;;;;;;31.07;18.83;;;;;;;8.91;78.41;100973.75;640352;222;24894;-77
2021/03/04 01:31:35;;;;;;;29.80;19.70;;;;;;;9.09;78.45;100967.62;643031;221;32767;-77
2021/03/04 01:34:02;;;;;;;34.53;18.27;;;;;;;8.89;79.17;100956.65;645185;221;24888;-75
2021/03/04 01:36:30;;;;;;;39.30;19.60;;;;;;;8.76;79.74;100961.11;638787;222;24897;-75
2021/03/04 01:38:58;;;;;;;28.40;18.00;;;;;;;8.73;79.08;100962.64;646586;219;24866;-75
2021/03/04 01:41:26;;;;;;;27.73;17.90;;;;;;;8.71;79.28;100953.65;640253;221;24952;-74
2021/03/04 01:43:54;;;;;;;33.47;18.43;;;;;;;8.68;79.93;100952.59;636971;222;24890;-77
2021/03/04 01:46:22;;;;;;;31.43;18.40;;;;;;;8.61;79.59;100948.34;639587;221;24922;-77
2021/03/04 01:48:50;;;;;;;29.37;18.33;;;;;;;8.65;79.52;100953.30;653834;216;24884;-76
2021/03/04 01:51:18;;;;;;;33.37;19.03;;;;;;;8.75;79.28;100947.31;662230;217;24831;-78
2021/03/04 01:53:46;;;;;;;30.70;18.30;;;;;;;8.88;78.30;100938.97;656857;217;24887;-75
2021/03/04 01:56:13;;;;;;;29.43;18.97;;;;;;;9.26;76.97;100928.69;644009;217;32618;-75
2021/03/04 01:58:41;;;;;;;31.13;18.27;;;;;;;9.02;77.32;100926.71;653156;217;24840;-75
2021/03/04 02:01:09;;;;;;;30.90;17.17;;;;;;;8.91;77.77;100928.82;650520;217;24845;-75
2021/03/04 02:03:37;;;;;;;32.33;20.33;;;;;;;8.88;77.88;100927.77;655620;217;28026;-75
2021/03/04 02:06:06;;;;;;;26.47;17.67;;;;;;;8.74;79.43;100933.99;655215;217;24832;-75
2021/03/04 02:08:34;;;;;;;29.53;18.60;;;;;;;8.77;78.88;100928.56;654031;217;24834;-75
2021/03/04 02:11:02;;;;;;;39.30;18.27;;;;;;;8.67;78.89;100924.18;656706;217;24851;-75
2021/03/04 02:13:31;;;;;;;29.03;16.63;;;;;;;8.55;78.52;100923.33;651169;217;24844;-77
2021/03/04 02:16:01;;;;;;;28.40;16.63;;;;;;;8.45;79.31;100918.49;658784;217;24853;-77
2021/03/04 02:18:29;;;;;;;33.10;19.30;;;;;;;8.43;79.61;100921.17;656589;217;24839;-77
2021/03/04 02:21:13;;;;;;;27.73;17.43;;;;;;;8.40;79.26;100922.70;657968;217;27037;-77
2021/03/04 02:23:47;;;;;;;26.10;16.70;;;;;;;8.40;78.63;100913.62;653564;217;24834;-77
2021/03/04 02:26:20;;;;;;;24.93;15.93;;;;;;;8.46;78.46;100906.71;640977;222;25026;-77
2021/03/04 02:28:48;;;;;;;26.07;15.63;;;;;;;8.47;77.94;100898.47;640351;221;25042;-75
2021/03/04 02:31:16;;;;;;;31.37;15.90;;;;;;;8.55;77.66;100894.81;640184;222;24877;-77
2021/03/04 02:33:44;;;;;;;27.00;14.63;;;;;;;8.58;77.87;100888.91;645071;222;25171;-76
2021/03/04 02:36:12;;;;;;;27.62;16.85;;;;;;;8.78;76.29;100879.64;637119;222;32792;-75
2021/03/04 02:38:40;;;;;;;31.03;17.20;;;;;;;8.88;76.08;100881.90;652042;218;23739;-73
2021/03/04 02:41:07;;;;;;;26.20;16.47;;;;;;;9.04;76.21;100872.45;652343;219;25136;-74
2021/03/04 02:43:35;;;;;;;24.47;16.30;;;;;;;9.20;74.95;100865.59;639380;222;34553;-74
2021/03/04 02:46:03;;;;;;;29.20;17.40;;;;;;;9.31;74.67;100855.67;640126;219;32564;-75
2021/03/04 02:48:33;;;;;;;29.33;16.63;;;;;;;9.12;74.56;100854.50;645414;221;24850;-75
2021/03/04 02:50:59;;;;;;;30.20;16.83;;;;;;;9.07;75.46;100859.71;652267;217;24851;-75
2021/03/04 02:53:27;;;;;;;28.03;16.27;;;;;;;8.99;74.92;100859.00;653179;217;24881;-75
2021/03/04 02:55:55;;;;;;;26.80;15.90;;;;;;;9.02;75.89;100851.47;653090;217;24845;-75
2021/03/04 02:58:23;;;;;;;27.37;16.10;;;;;;;8.93;75.99;100855.59;654153;217;24810;-75
2021/03/04 03:00:51;;;;;;;25.10;16.20;;;;;;;8.93;76.26;100853.83;652587;217;24856;-75
2021/03/04 03:03:19;;;;;;;25.67;15.80;;;;;;;8.88;75.53;100853.84;650013;217;24831;-75
2021/03/04 03:05:47;;;;;;;28.00;15.20;;;;;;;8.92;75.90;100852.17;659601;217;24835;-75
2021/03/04 03:08:15;;;;;;;26.03;15.57;;;;;;;8.86;76.26;100855.70;651697;217;24819;-75
2021/03/04 03:10:43;;;;;;;23.57;15.60;;;;;;;8.76;75.98;100850.41;657364;217;28083;-75
2021/03/04 03:13:12;;;;;;;27.70;16.17;;;;;;;8.53;75.82;100848.73;655371;217;24823;-75
2021/03/04 03:15:40;;;;;;;27.42;17.40;;;;;;;8.51;76.01;100846.27;650038;217;32691;-75
2021/03/04 03:18:08;;;;;;;31.67;17.53;;;;;;;8.27;76.53;100847.59;637757;221;23763;-77
2021/03/04 03:20:36;;;;;;;25.70;16.60;;;;;;;8.20;77.51;100855.48;653637;217;24827;-75
2021/03/04 03:23:04;;;;;;;25.73;16.23;;;;;;;8.15;78.01;100848.98;643436;221;24862;-75
2021/03/04 03:25:31;;;;;;;24.57;16.40;;;;;;;8.11;78.08;100857.45;642383;222;28066;-77
2021/03/04 03:27:59;;;;;;;22.50;15.83;;;;;;;8.05;78.15;100848.85;638240;222;25220;-77
2021/03/04 03:30:27;;;;;;;25.23;16.20;;;;;;;8.24;76.80;100850.89;634040;221;33996;-77
2021/03/04 03:32:57;;;;;;;25.13;15.93;;;;;;;8.10;78.08;100849.33;649143;221;24930;-77
2021/03/04 03:35:25;;;;;;;26.27;14.63;;;;;;;8.10;76.98;100845.44;655583;217;24861;-78
2021/03/04 03:37:54;;;;;;;23.03;13.50;;;;;;;7.99;77.39;100845.41;640896;222;24973;-78
2021/03/04 03:40:21;;;;;;;24.30;15.30;;;;;;;8.20;77.13;100842.53;649147;217;32802;-77
2021/03/04 03:42:51;;;;;;;28.17;15.77;;;;;;;8.16;76.15;100828.12;650558;218;24861;-77
2021/03/04 03:45:19;;;;;;;23.60;15.03;;;;;;;8.28;76.37;100828.52;650405;218;24834;-75
2021/03/04 03:47:47;;;;;;;25.47;14.10;;;;;;;8.40;75.39;100825.98;642037;222;24927;-75
2021/03/04 03:50:15;;;;;;;23.60;13.83;;;;;;;8.37;75.33;100821.86;647520;222;25118;-75
2021/03/04 03:52:44;;;;;;;21.10;13.40;;;;;;;8.42;75.83;100816.31;646768;221;24906;-75
2021/03/04 03:55:13;;;;;;;18.67;12.47;;;;;;;8.44;75.68;100819.61;642403;221;28081;-74
2021/03/04 03:57:41;;;;;;;21.80;13.33;;;;;;;8.32;75.48;100810.52;646929;220;24899;-74
2021/03/04 04:00:10;;;;;;;22.77;13.53;;;;;;;8.46;74.84;100813.39;646955;222;24824;-75
2021/03/04 04:02:38;;;;;;;21.37;13.63;;;;;;;8.45;75.65;100816.93;638543;222;24907;-74
2021/03/04 04:05:07;;;;;;;25.80;13.17;;;;;;;8.49;75.34;100810.56;635170;222;26030;-75
2021/03/04 04:07:35;;;;;;;20.77;13.23;;;;;;;8.28;75.66;100806.96;639803;222;24902;-75
2021/03/04 04:10:04;;;;;;;22.47;13.37;;;;;;;8.43;75.39;100811.02;643519;221;24896;-75
2021/03/04 04:12:32;;;;;;;20.10;12.30;;;;;;;8.43;74.58;100804.53;648305;219;24844;-74
2021/03/04 04:15:00;;;;;;;27.70;13.30;;;;;;;8.44;74.26;100802.77;644790;221;24903;-74
2021/03/04 04:17:28;;;;;;;21.13;13.23;;;;;;;8.20;74.92;100795.89;645240;220;24882;-74
2021/03/04 04:19:56;;;;;;;22.90;15.30;;;;;;;8.19;74.92;100792.95;642657;222;24945;-74
2021/03/04 04:22:24;;;;;;;20.03;12.57;;;;;;;8.00;76.30;100790.89;637218;221;24912;-75
2021/03/04 04:24:52;;;;;;;21.67;12.50;;;;;;;8.12;75.45;100792.22;642492;222;27145;-75
2021/03/04 04:27:19;;;;;;;24.77;13.13;;;;;;;8.23;75.40;100789.17;656815;217;25143;-74
2021/03/04 04:29:48;;;;;;;18.57;13.63;;;;;;;8.30;74.73;100792.97;640088;221;24960;-75
2021/03/04 04:32:16;;;;;;;22.00;12.27;;;;;;;8.30;75.02;100790.82;641680;221;25622;-74
2021/03/04 04:34:43;;;;;;;23.60;13.13;;;;;;;8.20;75.22;100788.12;639599;221;24902;-75
2021/03/04 04:37:11;;;;;;;18.40;12.43;;;;;;;8.27;75.23;100797.06;648807;218;24888;-74
2021/03/04 04:39:39;;;;;;;22.83;13.37;;;;;;;8.06;75.33;100792.22;645069;221;24839;-74
2021/03/04 04:42:08;;;;;;;19.00;11.40;;;;;;;7.81;76.67;100791.09;645072;219;24840;-75
2021/03/04 04:44:36;;;;;;;19.00;12.77;;;;;;;7.82;76.84;100790.14;639403;221;24886;-77
2021/03/04 04:47:04;;;;;;;20.70;13.37;;;;;;;7.74;76.54;100787.66;640937;221;24890;-77
2021/03/04 04:49:31;;;;;;;26.90;12.60;;;;;;;7.60;77.11;100787.85;648863;218;24856;-76
2021/03/04 04:51:59;;;;;;;23.03;13.00;;;;;;;7.61;77.38;100793.85;651517;218;25583;-76
2021/03/04 04:54:27;;;;;;;21.63;13.23;;;;;;;7.84;76.06;100784.38;637359;222;33033;-77
2021/03/04 04:56:55;;;;;;;20.07;12.70;;;;;;;7.95;76.70;100785.71;634820;222;32844;-77
2021/03/04 04:59:23;;;;;;;16.87;11.17;;;;;;;7.87;76.50;100777.67;655198;217;24836;-77
2021/03/04 05:01:51;;;;;;;16.27;11.37;;;;;;;7.92;76.04;100772.52;656026;218;25616;-75
2021/03/04 05:04:19;;;;;;;25.60;12.20;;;;;;;7.87;76.38;100778.49;646424;218;24923;-75
2021/03/04 05:06:47;;;;;;;20.77;12.83;;;;;;;7.69;76.64;100779.39;642649;222;25128;-77
2021/03/04 05:09:15;;;;;;;20.92;13.50;;;;;;;7.72;76.54;100775.27;651443;218;32608;-77
2021/03/04 05:11:43;;;;;;;20.10;12.33;;;;;;;7.59;76.50;100775.81;653755;218;23741;-78
2021/03/04 05:14:11;;;;;;;18.20;12.03;;;;;;;7.48;77.01;100781.44;636198;222;24894;-78
2021/03/04 05:16:39;;;;;;;17.00;11.03;;;;;;;7.44;78.23;100776.94;655431;217;24905;-77
2021/03/04 05:19:07;;;;;;;20.30;11.47;;;;;;;7.41;77.74;100783.63;652731;217;24950;-77
2021/03/04 05:21:35;;;;;;;24.10;13.20;;;;;;;7.34;78.06;100788.44;649526;217;24828;-77
2021/03/04 05:24:03;;;;;;;24.73;12.97;;;;;;;7.18;79.15;100787.03;650528;216;24849;-77
2021/03/04 05:26:31;;;;;;;28.07;13.73;;;;;;;7.13;79.48;100785.60;655449;217;24890;-77
2021/03/04 05:28:59;;;;;;;25.10;12.60;;;;;;;7.09;79.68;100788.05;660614;217;24872;-77
2021/03/04 05:31:27;;;;;;;21.87;11.87;;;;;;;7.14;79.07;100783.84;654873;217;24843;-76
2021/03/04 05:33:55;;;;;;;20.03;11.30;;;;;;;7.25;78.63;100768.86;654677;217;24870;-77
2021/03/04 05:36:23;;;;;;;18.33;11.40;;;;;;;7.23;79.21;100772.02;660169;217;24844;-76
2021/03/04 05:38:50;;;;;;;20.70;11.60;;;;;;;7.14;79.22;100770.44;655819;217;24842;-76
2021/03/04 05:41:19;;;;;;;19.40;11.73;;;;;;;7.20;78.77;100767.91;658063;217;24883;-77
2021/03/04 05:43:47;;;;;;;19.03;12.40;;;;;;;7.48;78.06;100764.62;652569;217;24841;-76
2021/03/04 05:46:15;;;;;;;19.20;11.43;;;;;;;7.38;77.72;100760.57;651959;217;24849;-76
2021/03/04 05:48:43;;;;;;;22.13;10.97;;;;;;;7.38;78.03;100768.33;654531;217;24848;-76
2021/03/04 05:51:13;;;;;;;17.03;10.83;;;;;;;7.65;77.47;100760.33;656671;217;24864;-78
2021/03/04 05:53:42;;;;;;;18.73;11.27;;;;;;;7.78;77.08;100752.01;651251;217;24864;-77
2021/03/04 05:56:10;;;;;;;17.53;11.40;;;;;;;7.84;76.39;100758.48;643178;221;24890;-75
2021/03/04 05:58:37;;;;;;;24.83;11.63;;;;;;;7.76;77.20;100756.48;646316;220;27051;-74
2021/03/04 06:01:05;;;;;;;22.17;11.33;;;;;;;7.92;76.61;100753.57;642974;221;24858;-74
2021/03/04 06:03:33;;;;;;;17.63;10.80;;;;;;;7.94;76.15;100746.03;642709;221;24985;-75
2021/03/04 06:06:01;;;;;;;20.47;12.10;;;;;;;7.96;76.06;100745.92;643102;222;24880;-75
2021/03/04 06:08:29;;;;;;;26.70;14.70;;;;;;;8.00;75.22;100739.56;634572;221;32783;-74
2021/03/04 06:10:57;;;;;;;19.17;13.07;;;;;;;7.69;76.06;100751.38;640455;222;24920;-74
2021/03/04 06:13:25;;;;;;;32.00;14.40;;;;;;;7.52;76.43;100758.27;643106;222;24969;-77
2021/03/04 06:15:54;;;;;;;23.50;14.60;;;;;;;7.59;76.46;100757.70;644831;219;33643;-77
2021/03/04 06:18:21;;;;;;;22.50;13.40;;;;;;;7.47;77.35;100759.91;637408;222;24876;-78
2021/03/04 06:20:50;;;;;;;26.50;14.30;;;;;;;7.43;77.29;100755.87;644129;221;24893;-77
2021/03/04 06:23:17;;;;;;;30.17;13.87;;;;;;;7.45;78.03;100752.70;631919;225;24924;-77
2021/03/04 06:25:46;;;;;;;24.30;12.20;;;;;;;7.65;77.78;100758.56;641089;222;25156;-77
2021/03/04 06:28:14;;;;;;;38.83;18.20;;;;;;;7.56;77.90;100762.28;654411;218;24815;-77
2021/03/04 06:30:42;;;;;;;35.63;16.87;;;;;;;7.55;78.07;100760.16;646959;219;24864;-77
2021/03/04 06:33:10;;;;;;;25.20;15.83;;;;;;;7.65;77.60;100759.85;640921;222;24889;-77
2021/03/04 06:35:38;;;;;;;26.37;16.20;;;;;;;7.60;78.14;100762.41;653511;218;24904;-77
2021/03/04 06:38:14;;;;;;;31.17;15.43;;;;;;;7.64;78.26;100758.20;659465;217;24849;-77
2021/03/04 06:40:42;;;;;;;23.67;13.70;;;;;;;7.76;77.62;100756.95;640939;221;24896;-75
2021/03/04 06:43:18;;;;;;;25.57;14.10;;;;;;;7.96;76.98;100754.98;638553;221;24905;-74
2021/03/04 06:45:46;;;;;;;23.92;15.63;;;;;;;8.25;76.49;100747.12;639640;221;32857;-75
2021/03/04 06:48:14;;;;;;;24.70;14.73;;;;;;;8.23;76.14;100739.95;652770;217;23714;-74
2021/03/04 06:50:42;;;;;;;24.90;15.30;;;;;;;8.14;76.90;100735.92;650960;218;24809;-74
2021/03/04 06:53:12;;;;;;;25.27;14.47;;;;;;;8.19;77.06;100733.83;647059;218;24805;-74
2021/03/04 06:55:51;;;;;;;27.30;15.47;;;;;;;8.20;76.35;100732.41;646508;221;24834;-74
2021/03/04 06:58:26;;;;;;;30.60;15.30;;;;;;;8.24;76.25;100729.94;645894;218;24824;-74
2021/03/04 07:01:05;;;;;;;28.03;14.70;;;;;;;8.39;76.87;100725.84;641760;221;24891;-74
2021/03/04 07:03:37;;;;;;;26.75;16.55;;;;;;;8.91;74.61;100714.34;636701;221;32976;-74
2021/03/04 07:06:06;;;;;;;25.92;16.77;;;;;;;9.33;73.91;100708.42;635289;222;32686;-74
2021/03/04 07:08:34;;;;;;;28.40;16.97;;;;;;;8.84;74.60;100708.45;657869;216;23757;-74
2021/03/04 07:11:03;;;;;;;24.43;14.67;;;;;;;8.95;74.68;100708.43;642914;221;24931;-75
2021/03/04 07:13:32;;;;;;;25.90;15.60;;;;;;;9.10;73.96;100703.78;647351;218;32626;-74
2021/03/04 07:16:02;;;;;;;23.60;14.90;;;;;;;8.89;75.43;100711.52;655563;216;24892;-75
2021/03/04 07:18:32;;;;;;;22.07;14.57;;;;;;;8.92;74.72;100713.87;642398;222;24856;-74
2021/03/04 07:21:00;;;;;;;28.50;14.80;;;;;;;8.87;75.13;100714.24;644612;220;25167;-74
2021/03/04 07:23:28;;;;;;;29.73;14.87;;;;;;;9.05;74.01;100715.02;658056;217;24815;-75
2021/03/04 07:25:55;;;;;;;24.07;15.13;;;;;;;8.88;74.69;100718.48;641756;221;24878;-74
2021/03/04 07:28:24;;;;;;;24.60;15.60;;;;;;;8.86;74.72;100716.45;647061;222;24877;-75
2021/03/04 07:30:51;;;;;;;19.93;13.67;;;;;;;9.04;74.21;100717.26;643668;222;24900;-75
2021/03/04 07:33:19;;;;;;;25.90;14.83;;;;;;;8.91;74.48;100713.52;643169;221;24884;-75
2021/03/04 07:35:48;;;;;;;26.30;15.37;;;;;;;8.72;74.15;100723.20;647774;220;24831;-75
2021/03/04 07:38:25;;;;;;;27.77;14.57;;;;;;;8.67;75.17;100726.64;654419;218;24836;-77
2021/03/04 07:41:01;;;;;;;26.13;15.83;;;;;;;8.63;76.12;100720.88;646983;219;24843;-76
2021/03/04 07:43:30;;;;;;;23.90;13.43;;;;;;;8.90;75.92;100713.99;647326;222;24863;-74
2021/03/04 07:45:58;;;;;;;24.13;15.10;;;;;;;9.09;73.95;100696.47;639650;222;24860;-73
2021/03/04 07:48:26;;;;;;;27.30;14.33;;;;;;;9.08;73.02;100690.11;639615;222;24874;-74
2021/03/04 07:50:57;;;;;;;26.00;14.33;;;;;;;9.22;72.65;100688.05;646622;221;24856;-74
2021/03/04 07:53:24;;;;;;;30.40;15.10;;;;;;;9.33;72.70;100689.78;644049;221;24869;-74
2021/03/04 07:55:52;;;;;;;22.70;14.33;;;;;;;9.02;72.43;100690.62;640293;221;24883;-75
2021/03/04 07:58:20;;;;;;;27.70;14.20;;;;;;;9.15;72.15;100688.69;655212;218;24831;-77
2021/03/04 08:00:48;;;;;;;28.47;14.53;;;;;;;9.27;73.49;100683.77;655130;218;24819;-74
2021/03/04 08:03:16;;;;;;;21.50;13.87;;;;;;;9.37;73.02;100679.48;651960;218;24827;-74
2021/03/04 08:05:44;;;;;;;26.60;15.00;;;;;;;9.58;72.33;100678.20;643332;221;24868;-74
2021/03/04 08:08:13;;;;;;;21.10;13.63;;;;;;;9.85;71.99;100675.05;645868;220;24892;-74
2021/03/04 08:10:44;;;;;;;27.37;15.03;;;;;;;9.80;71.53;100670.73;653272;217;25019;-75
2021/03/04 08:13:12;;;;;;;24.27;14.10;;;;;;;9.95;71.45;100666.83;645823;221;24902;-75
2021/03/04 08:15:41;;;;;;;28.47;14.33;;;;;;;9.92;70.89;100661.08;628701;225;24904;-73
2021/03/04 08:18:23;;;;;;;22.87;13.30;;;;;;;10.04;71.54;100661.34;637751;222;24878;-75
2021/03/04 08:20:51;;;;;;;22.63;13.63;;;;;;;9.90;70.48;100659.91;646323;221;24880;-74
2021/03/04 08:23:19;;;;;;;22.47;13.83;;;;;;;9.97;70.72;100662.33;645287;221;24810;-74
2021/03/04 08:25:47;;;;;;;24.53;14.33;;;;;;;10.15;70.54;100657.36;646398;221;24860;-74
2021/03/04 08:28:22;;;;;;;19.57;12.43;;;;;;;10.49;69.51;100653.98;648119;218;24818;-74
2021/03/04 08:30:50;;;;;;;29.67;13.90;;;;;;;10.33;70.29;100647.18;646485;218;24824;-73
2021/03/04 08:33:18;;;;;;;20.27;12.90;;;;;;;10.27;70.56;100632.09;640937;222;28118;-74
2021/03/04 08:35:46;;;;;;;28.93;12.77;;;;;;;10.58;69.19;100640.67;642988;222;24880;-74
2021/03/04 08:38:14;;;;;;;23.47;13.70;;;;;;;10.91;68.72;100629.87;640604;222;24860;-74
2021/03/04 08:40:42;;;;;;;18.03;11.90;;;;;;;11.09;67.41;100623.97;639578;222;24902;-74
2021/03/04 08:43:10;;;;;;;21.80;12.47;;;;;;;10.75;67.30;100617.89;643691;222;24938;-74
2021/03/04 08:45:39;;;;;;;19.33;12.00;;;;;;;10.88;67.42;100615.02;648652;218;24885;-74
2021/03/04 08:48:08;;;;;;;32.57;11.67;;;;;;;10.90;67.10;100611.31;635867;222;24873;-74
2021/03/04 08:50:37;;;;;;;21.90;11.90;;;;;;;11.19;66.88;100606.08;655910;217;24891;-74
2021/03/04 08:53:09;;;;;;;22.27;10.97;;;;;;;11.20;65.79;100601.70;636770;222;24886;-75
2021/03/04 08:55:44;;;;;;;18.60;12.43;;;;;;;11.38;65.83;100593.98;648021;219;24814;-73
2021/03/04 08:58:12;;;;;;;22.23;12.50;;;;;;;11.46;64.79;100579.78;649132;218;27023;-74
2021/03/04 09:00:40;;;;;;;22.77;11.97;;;;;;;11.62;64.18;100576.09;640462;219;32587;-73
2021/03/04 09:03:09;;;;;;;21.80;11.07;;;;;;;11.72;64.17;100574.28;641661;221;24856;-74
2021/03/04 09:05:37;;;;;;;18.63;11.37;;;;;;;11.60;63.76;100566.30;646415;221;25148;-74
2021/03/04 09:08:08;;;;;;;20.27;10.70;;;;;;;11.67;64.00;100570.44;640831;221;25022;-74
2021/03/04 09:10:42;;;;;;;24.67;10.87;;;;;;;11.92;64.01;100565.09;641471;221;24868;-74
2021/03/04 09:13:10;;;;;;;21.00;10.70;;;;;;;11.89;63.12;100561.81;648543;221;24848;-74
2021/03/04 09:15:43;;;;;;;20.27;11.10;;;;;;;11.98;62.79;100559.31;639104;221;24903;-73
2021/03/04 09:18:09;;;;;;;17.10;10.80;;;;;;;12.14;62.80;100566.01;636081;221;24105;-74
2021/03/04 09:20:35;;;;;;;19.50;9.80;;;;;;;12.49;62.91;100551.67;644015;221;24967;-73
2021/03/04 09:23:05;;;;;;;21.03;10.20;;;;;;;12.74;61.40;100538.84;647184;220;26051;-74
2021/03/04 09:25:33;;;;;;;20.63;10.90;;;;;;;13.24;61.53;100539.08;628101;225;24937;-74
2021/03/04 09:28:02;;;;;;;17.77;10.57;;;;;;;13.05;60.03;100539.23;638954;221;23941;-75
2021/03/04 09:30:30;;;;;;;21.00;10.23;;;;;;;13.56;60.73;100537.12;646320;218;24932;-73
2021/03/04 09:32:58;;;;;;;17.27;10.37;;;;;;;14.04;59.44;100529.11;648812;218;23871;-76
2021/03/04 09:35:27;;;;;;;23.70;10.17;;;;;;;13.61;58.26;100521.78;643097;221;23948;-74
2021/03/04 09:37:55;;;;;;;16.40;9.80;;;;;;;12.90;59.78;100522.48;646563;218;24851;-75
2021/03/04 09:40:24;;;;;;;18.10;9.17;;;;;;;13.14;61.01;100524.45;646277;218;23890;-74
2021/03/04 09:42:52;;;;;;;21.20;10.70;;;;;;;13.54;60.84;100519.97;651192;217;24890;-74
2021/03/04 09:45:20;;;;;;;18.40;10.83;;;;;;;13.90;59.28;100517.95;642518;222;24914;-75
2021/03/04 09:47:48;;;;;;;19.73;11.67;;;;;;;13.95;60.36;100517.02;642554;221;24902;-74
2021/03/04 09:50:18;;;;;;;19.63;10.33;;;;;;;13.37;58.80;100503.37;641076;221;29171;-74
2021/03/04 09:52:46;;;;;;;21.40;11.00;;;;;;;13.41;58.82;100511.73;634537;221;32792;-75
2021/03/04 09:55:15;;;;;;;25.93;10.93;;;;;;;13.10;59.52;100513.50;638520;222;23766;-75
2021/03/04 09:57:43;;;;;;;18.60;11.35;;;;;;;13.39;60.11;100497.52;629408;222;32749;-74
2021/03/04 10:00:26;;;;;;;18.63;10.80;;;;;;;13.50;59.62;100503.76;637334;221;26005;-74
2021/03/04 10:02:56;;;;;;;14.00;9.03;;;;;;;13.35;61.19;100515.28;635743;221;31557;-74
2021/03/04 10:05:22;;;;;;;20.10;9.90;;;;;;;12.97;60.87;100512.60;638624;221;24908;-74
2021/03/04 10:07:50;;;;;;;19.57;11.60;;;;;;;12.90;61.79;100515.96;636649;221;24923;-75
2021/03/04 10:10:18;;;;;;;20.50;10.00;;;;;;;13.10;61.04;100507.46;641920;222;24943;-75
2021/03/04 10:12:50;;;;;;;20.30;11.63;;;;;;;13.62;60.59;100501.20;637269;222;24933;-76
2021/03/04 10:15:25;;;;;;;21.60;11.60;;;;;;;14.11;59.38;100494.81;642566;215;32474;-75
2021/03/04 10:17:53;;;;;;;23.40;11.03;;;;;;;13.99;59.18;100496.58;636301;221;23778;-75
2021/03/04 10:20:22;;;;;;;22.87;10.50;;;;;;;13.99;59.18;100494.78;647005;221;23901;-74
2021/03/04 10:22:51;;;;;;;23.93;11.10;;;;;;;14.19;59.44;100490.06;644910;220;25327;-75
2021/03/04 10:25:19;;;;;;;20.27;11.83;;;;;;;13.81;59.59;100492.30;647748;221;24816;-74
2021/03/04 10:27:47;;;;;;;17.63;10.70;;;;;;;13.37;61.29;100498.14;645613;221;24850;-77
2021/03/04 10:30:16;;;;;;;19.00;11.00;;;;;;;13.33;62.16;100494.22;640652;221;24865;-75
2021/03/04 10:32:45;;;;;;;21.20;10.70;;;;;;;13.40;62.04;100499.16;643050;221;28046;-74
2021/03/04 10:35:14;;;;;;;21.00;11.03;;;;;;;13.25;62.03;100503.33;656009;217;24829;-74
2021/03/04 10:37:41;;;;;;;19.80;11.83;;;;;;;13.24;62.63;100504.31;656418;217;24894;-77
2021/03/04 10:40:11;;;;;;;21.03;11.60;;;;;;;13.63;61.47;100501.53;659344;217;24904;-75
2021/03/04 10:42:40;;;;;;;17.97;10.60;;;;;;;13.52;62.12;100506.24;651212;217;24829;-75
2021/03/04 10:45:09;;;;;;;24.20;12.87;;;;;;;13.28;62.17;100510.85;657306;217;24832;-74
2021/03/04 10:47:37;;;;;;;17.20;11.00;;;;;;;13.10;62.18;100507.46;661401;217;25165;-76
2021/03/04 10:50:06;;;;;;;24.30;12.30;;;;;;;13.07;63.12;100505.95;640628;222;24860;-75
2021/03/04 10:52:34;;;;;;;23.15;13.05;;;;;;;13.81;61.39;100509.78;638182;221;33038;-76
2021/03/04 10:55:02;;;;;;;22.82;12.60;;;;;;;13.45;62.01;100498.68;631848;221;32717;-75
2021/03/04 10:57:30;;;;;;;20.97;11.70;;;;;;;13.39;61.88;100497.52;653064;218;23715;-75
2021/03/04 10:59:57;;;;;;;21.43;9.80;;;;;;;13.62;61.00;100492.05;646752;222;24828;-75
2021/03/04 11:02:25;;;;;;;18.93;10.60;;;;;;;13.62;60.78;100500.38;644707;222;24924;-74
2021/03/04 11:04:54;;;;;;;24.30;10.20;;;;;;;13.87;61.42;100489.03;640532;221;24881;-74
2021/03/04 11:07:22;;;;;;;20.70;9.23;;;;;;;14.14;60.63;100481.89;658754;217;24843;-75
2021/03/04 11:09:51;;;;;;;14.33;8.60;;;;;;;14.06;60.77;100480.07;638658;220;24872;-75
2021/03/04 11:12:20;;;;;;;20.17;10.80;;;;;;;14.12;60.91;100478.14;650532;217;24857;-74
2021/03/04 11:14:48;;;;;;;14.03;9.33;;;;;;;13.92;60.14;100473.67;653319;217;24910;-77
2021/03/04 11:17:16;;;;;;;23.20;9.40;;;;;;;13.93;61.07;100470.56;654805;217;24931;-78
2021/03/04 11:19:44;;;;;;;18.50;9.13;;;;;;;14.08;60.70;100472.91;650113;217;24863;-77